Time;durP1;ratioP1;P1;durP2;ratioP2;P2;SDS_P1;SDS_P2;PMS_P1;PMS_P2;Temp;Humidity;BMP_temperature;BMP_pressure;BME280_temperature;BME280_humidity;BME280_pressure;Samples;Min_cycle;Max_cycle;Signal;HPM_P1;HPM_P2
2022/05/31 00:01:09;;;;;;;1.80;1.20;;;9.10;99.90;;;;;;5031733;28;20045;-74
2022/05/31 00:03:34;;;;;;;1.45;1.13;;;9.20;99.90;;;;;;5028357;28;20041;-74
2022/05/31 00:06:00;;;;;;;2.33;1.52;;;9.20;99.90;;;;;;5032446;28;20044;-75
2022/05/31 00:08:26;;;;;;;1.27;0.80;;;9.10;99.90;;;;;;5015949;28;20496;-74
2022/05/31 00:10:51;;;;;;;1.48;0.57;;;9.00;99.90;;;;;;5015103;28;20041;-74
2022/05/31 00:13:17;;;;;;;0.40;0.40;;;8.90;99.90;;;;;;5020383;28;20041;-75
2022/05/31 00:15:43;;;;;;;1.60;0.60;;;8.90;99.90;;;;;;5013623;28;20168;-75
2022/05/31 00:18:08;;;;;;;1.45;0.70;;;8.90;99.90;;;;;;5031367;28;20045;-75
2022/05/31 00:20:34;;;;;;;1.88;1.00;;;8.90;99.90;;;;;;5031896;28;20044;-75
2022/05/31 00:23:00;;;;;;;2.03;1.10;;;9.00;99.90;;;;;;5031151;28;20142;-75
2022/05/31 00:25:26;;;;;;;2.05;1.20;;;9.00;99.90;;;;;;5031953;28;20482;-75
2022/05/31 00:27:51;;;;;;;3.40;1.70;;;9.00;99.90;;;;;;5031054;28;20048;-75
2022/05/31 00:30:17;;;;;;;3.13;1.40;;;9.00;99.90;;;;;;5048361;28;20401;-74
2022/05/31 00:32:46;;;;;;;2.25;1.45;;;8.90;99.90;;;;;;5013477;28;20049;-74
2022/05/31 00:35:20;;;;;;;2.67;1.40;;;8.90;99.90;;;;;;5013344;28;20485;-74
2022/05/31 00:37:46;;;;;;;2.92;1.50;;;8.80;99.90;;;;;;5034629;28;20041;-74
2022/05/31 00:40:15;;;;;;;2.90;1.42;;;8.90;99.90;;;;;;5018369;28;20045;-74
2022/05/31 00:43:05;;;;;;;2.08;1.45;;;8.90;99.90;;;;;;5035621;28;20129;-74
2022/05/31 00:45:34;;;;;;;2.38;1.42;;;8.80;99.90;;;;;;5019397;28;20038;-74
2022/05/31 00:48:00;;;;;;;2.60;1.55;;;8.80;99.90;;;;;;5034552;28;20038;-74
2022/05/31 00:50:31;;;;;;;2.17;1.40;;;8.80;99.90;;;;;;5019091;28;20046;-74
2022/05/31 00:53:07;;;;;;;3.33;1.05;;;8.80;99.90;;;;;;5034927;28;20045;-74
2022/05/31 00:55:37;;;;;;;0.93;0.85;;;8.90;99.90;;;;;;5035854;28;20049;-74
2022/05/31 00:58:14;;;;;;;1.38;0.82;;;8.90;99.90;;;;;;5051864;28;20041;-74
2022/05/31 01:00:41;;;;;;;2.13;1.38;;;8.90;99.90;;;;;;5017121;28;20049;-75
2022/05/31 01:03:10;;;;;;;1.65;0.80;;;8.90;99.90;;;;;;5034206;28;20080;-74
2022/05/31 01:05:36;;;;;;;1.85;0.80;;;8.90;99.90;;;;;;5035596;28;20048;-74
2022/05/31 01:08:02;;;;;;;1.58;1.25;;;8.90;99.90;;;;;;5034744;28;20037;-74
2022/05/31 01:10:28;;;;;;;3.05;1.35;;;8.90;99.90;;;;;;5035340;28;20049;-74
2022/05/31 01:12:55;;;;;;;1.58;1.17;;;8.90;99.90;;;;;;5034436;28;20041;-74
2022/05/31 01:15:21;;;;;;;2.55;1.38;;;8.90;99.90;;;;;;5034543;28;20072;-75
2022/05/31 01:17:47;;;;;;;2.47;1.40;;;8.90;99.90;;;;;;5051758;28;20045;-74
2022/05/31 01:20:17;;;;;;;1.20;1.08;;;8.80;99.90;;;;;;5035223;28;20052;-74
2022/05/31 01:22:55;;;;;;;2.38;1.20;;;8.80;99.90;;;;;;5035222;28;20492;-74
2022/05/31 01:25:36;;;;;;;3.75;1.67;;;8.80;99.90;;;;;;5050748;28;20037;-74
2022/05/31 01:28:09;;;;;;;3.50;2.28;;;8.80;99.90;;;;;;5034244;28;20072;-74
2022/05/31 01:30:46;;;;;;;2.97;1.80;;;8.80;99.90;;;;;;5033398;28;20057;-74
2022/05/31 01:33:23;;;;;;;3.40;2.30;;;8.80;99.90;;;;;;5032635;28;20050;-74
2022/05/31 01:35:48;;;;;;;4.70;2.00;;;8.80;99.90;;;;;;5034934;28;20045;-74
2022/05/31 01:38:31;;;;;;;1.83;1.30;;;8.80;99.90;;;;;;5034542;28;20398;-75
2022/05/31 01:41:12;;;;;;;3.05;1.77;;;8.80;99.90;;;;;;5033843;28;20053;-75
2022/05/31 01:43:46;;;;;;;3.65;2.08;;;8.90;99.90;;;;;;5034981;28;20048;-75
2022/05/31 01:46:16;;;;;;;3.20;1.30;;;8.90;99.90;;;;;;5034740;28;20068;-74
2022/05/31 01:48:43;;;;;;;1.98;1.10;;;8.90;99.90;;;;;;5033913;28;20037;-74
2022/05/31 01:51:11;;;;;;;1.67;1.20;;;8.90;99.90;;;;;;5034542;28;20045;-74
2022/05/31 01:53:37;;;;;;;3.20;1.63;;;8.90;99.90;;;;;;5034032;28;20041;-74
2022/05/31 01:56:04;;;;;;;5.75;2.45;;;8.90;99.90;;;;;;5049479;28;20044;-74
2022/05/31 01:58:34;;;;;;;4.25;2.08;;;8.90;99.90;;;;;;5025887;28;20084;-74
2022/05/31 02:01:03;;;;;;;3.60;2.05;;;8.90;99.90;;;;;;5025841;28;20068;-74
2022/05/31 02:03:31;;;;;;;4.10;2.20;;;8.90;99.90;;;;;;5017042;28;20048;-74
2022/05/31 02:05:59;;;;;;;6.15;2.50;;;9.00;99.90;;;;;;5017100;28;20033;-74
2022/05/31 02:08:29;;;;;;;4.68;2.28;;;9.00;99.90;;;;;;5033609;28;20107;-75
2022/05/31 02:10:56;;;;;;;5.03;2.45;;;9.00;99.90;;;;;;5034234;28;20037;-74
2022/05/31 02:13:22;;;;;;;4.03;2.60;;;9.00;99.90;;;;;;5017257;28;20041;-73
2022/05/31 02:15:48;;;;;;;5.55;3.03;;;9.00;99.90;;;;;;5033759;28;20417;-74
2022/05/31 02:18:15;;;;;;;5.25;3.13;;;9.00;99.90;;;;;;5017346;28;20052;-74
2022/05/31 02:20:41;;;;;;;6.82;2.90;;;9.00;99.90;;;;;;5017415;28;20619;-74
2022/05/31 02:23:06;;;;;;;7.00;3.13;;;9.10;99.90;;;;;;5033107;28;20065;-74
2022/05/31 02:25:32;;;;;;;5.95;3.50;;;9.10;99.90;;;;;;5033230;28;20044;-74
2022/05/31 02:27:58;;;;;;;6.95;3.33;;;9.10;99.90;;;;;;5033017;28;20116;-75
2022/05/31 02:30:25;;;;;;;7.32;3.45;;;9.10;99.90;;;;;;5033925;28;20045;-74
2022/05/31 02:32:50;;;;;;;5.78;3.33;;;9.10;99.90;;;;;;5032775;28;20047;-74
2022/05/31 02:35:16;;;;;;;6.47;3.72;;;9.10;99.90;;;;;;5032466;28;20420;-74
2022/05/31 02:37:42;;;;;;;4.90;2.97;;;9.10;99.90;;;;;;5032996;28;20045;-74
2022/05/31 02:40:08;;;;;;;6.18;3.08;;;9.10;99.90;;;;;;5033488;28;20055;-74
2022/05/31 02:42:36;;;;;;;4.70;2.65;;;9.10;99.90;;;;;;5033485;28;20046;-74
2022/05/31 02:45:05;;;;;;;5.68;3.25;;;9.10;99.90;;;;;;5015952;28;20512;-75
2022/05/31 02:47:31;;;;;;;5.72;2.78;;;9.10;99.90;;;;;;5017214;28;20477;-74
2022/05/31 02:49:56;;;;;;;6.65;2.78;;;9.20;99.90;;;;;;5017028;28;20045;-74
2022/05/31 02:52:22;;;;;;;5.75;3.13;;;9.20;99.90;;;;;;5031743;28;20128;-74
2022/05/31 02:54:48;;;;;;;5.43;2.70;;;9.20;99.90;;;;;;5033273;28;20095;-74
2022/05/31 02:57:13;;;;;;;5.22;3.00;;;9.20;99.90;;;;;;5016867;28;20098;-74
2022/05/31 02:59:40;;;;;;;5.47;3.33;;;9.10;99.90;;;;;;5014924;28;20049;-74
2022/05/31 03:02:06;;;;;;;6.00;3.30;;;9.20;99.90;;;;;;5016084;28;20121;-75
2022/05/31 03:04:32;;;;;;;5.28;3.28;;;9.20;99.90;;;;;;5032187;28;20400;-75
2022/05/31 03:07:01;;;;;;;5.80;3.20;;;9.20;99.90;;;;;;5033141;28;20124;-74
2022/05/31 03:09:28;;;;;;;6.15;3.30;;;9.20;99.90;;;;;;5015985;28;20052;-74
2022/05/31 03:12:00;;;;;;;6.82;3.30;;;9.20;99.90;;;;;;5015804;28;20038;-74
2022/05/31 03:14:54;;;;;;;5.65;3.25;;;9.20;99.90;;;;;;5015311;28;20044;-74
2022/05/31 03:17:26;;;;;;;6.35;4.00;;;9.20;99.90;;;;;;5025106;28;20043;-74
2022/05/31 03:20:15;;;;;;;5.47;3.33;;;9.10;99.90;;;;;;5049388;28;20037;-75
2022/05/31 03:22:46;;;;;;;6.72;3.60;;;9.20;99.90;;;;;;5046892;28;20525;-75
2022/05/31 03:25:23;;;;;;;6.70;3.33;;;9.10;99.90;;;;;;5030542;28;20421;-75
2022/05/31 03:27:51;;;;;;;6.78;3.22;;;9.10;99.90;;;;;;5031891;28;20041;-75
2022/05/31 03:30:17;;;;;;;6.60;3.75;;;9.10;99.90;;;;;;5032467;28;20397;-74
2022/05/31 03:32:44;;;;;;;7.57;4.00;;;9.10;99.90;;;;;;5026505;28;20033;-74
2022/05/31 03:35:10;;;;;;;6.60;3.67;;;9.10;99.90;;;;;;5032478;28;20528;-74
2022/05/31 03:37:35;;;;;;;6.20;3.60;;;9.10;99.90;;;;;;5031752;28;20069;-74
2022/05/31 03:40:02;;;;;;;6.15;3.70;;;9.10;99.90;;;;;;5032586;28;20425;-74
2022/05/31 03:42:27;;;;;;;6.32;3.70;;;9.10;99.90;;;;;;5030749;28;20823;-74
2022/05/31 03:44:53;;;;;;;6.78;3.90;;;9.10;99.90;;;;;;5016220;28;20665;-74
2022/05/31 03:47:21;;;;;;;6.90;4.00;;;9.10;99.90;;;;;;5031516;28;20081;-76
2022/05/31 03:49:47;;;;;;;6.18;3.60;;;9.10;99.90;;;;;;5032321;28;20033;-75
2022/05/31 03:52:13;;;;;;;6.80;3.78;;;9.10;99.90;;;;;;5030380;28;20401;-76
2022/05/31 03:54:38;;;;;;;6.43;3.42;;;9.10;99.90;;;;;;5031480;28;20497;-75
2022/05/31 03:57:06;;;;;;;6.55;3.70;;;9.10;99.90;;;;;;5040758;28;20045;-75
2022/05/31 03:59:38;;;;;;;6.85;3.72;;;9.10;99.90;;;;;;5028674;28;20091;-76
2022/05/31 04:02:05;;;;;;;6.93;3.83;;;9.20;99.90;;;;;;5021968;28;20041;-75
2022/05/31 04:04:30;;;;;;;7.13;3.78;;;9.20;99.90;;;;;;5014747;28;20046;-76
2022/05/31 04:06:56;;;;;;;6.85;3.90;;;9.20;99.90;;;;;;5032125;28;20047;-77
2022/05/31 04:09:22;;;;;;;7.32;6.03;;;9.30;99.90;;;;;;5014522;28;20456;-76
2022/05/31 04:11:47;;;;;;;8.27;6.13;;;9.30;99.90;;;;;;5014869;28;20107;-75
2022/05/31 04:14:13;;;;;;;6.88;4.60;;;9.30;99.90;;;;;;5015288;28;20045;-76
2022/05/31 04:16:38;;;;;;;7.40;4.55;;;9.30;99.90;;;;;;5015655;28;20122;-75
2022/05/31 04:19:04;;;;;;;6.80;4.15;;;9.30;99.90;;;;;;5029926;28;20037;-76
2022/05/31 04:21:30;;;;;;;6.72;4.25;;;9.30;99.90;;;;;;5031892;28;20512;-75
2022/05/31 04:23:58;;;;;;;7.45;4.32;;;9.30;99.90;;;;;;5031134;28;20099;-75
2022/05/31 04:26:29;;;;;;;7.72;4.15;;;9.30;99.90;;;;;;5013449;28;20073;-75
2022/05/31 04:28:55;;;;;;;8.23;4.90;;;9.40;99.90;;;;;;5031157;28;20034;-75
2022/05/31 04:31:21;;;;;;;9.07;4.93;;;9.40;99.90;;;;;;5031424;28;20452;-75
2022/05/31 04:33:47;;;;;;;7.75;5.20;;;9.40;99.90;;;;;;5032043;28;20442;-75
2022/05/31 04:36:15;;;;;;;10.43;5.28;;;9.40;99.90;;;;;;5030895;28;20128;-75
2022/05/31 04:38:41;;;;;;;7.68;5.35;;;9.40;99.90;;;;;;5031787;28;20052;-75
2022/05/31 04:41:14;;;;;;;7.53;4.90;;;9.40;99.90;;;;;;5030582;28;20406;-75
2022/05/31 04:43:40;;;;;;;8.48;5.40;;;9.30;99.90;;;;;;5014455;28;20401;-75
2022/05/31 04:46:15;;;;;;;8.68;5.05;;;9.40;99.90;;;;;;5030329;28;20033;-75
2022/05/31 04:48:41;;;;;;;8.73;5.10;;;9.40;99.90;;;;;;5031462;28;20140;-75
2022/05/31 04:51:07;;;;;;;8.88;5.43;;;9.40;99.90;;;;;;5030317;28;20120;-75
2022/05/31 04:53:33;;;;;;;8.20;5.20;;;9.40;99.90;;;;;;5028853;28;20409;-75
2022/05/31 04:56:04;;;;;;;8.55;5.03;;;9.50;99.90;;;;;;5047175;28;20046;-75
2022/05/31 04:58:30;;;;;;;8.10;5.28;;;9.50;99.90;;;;;;5014092;28;20068;-75
2022/05/31 05:00:55;;;;;;;7.93;5.40;;;9.50;99.90;;;;;;5030892;28;20042;-75
2022/05/31 05:03:21;;;;;;;8.30;5.28;;;9.50;99.90;;;;;;5029249;28;20041;-76
2022/05/31 05:05:46;;;;;;;8.75;5.22;;;9.50;99.90;;;;;;5031856;28;20034;-75
2022/05/31 05:08:12;;;;;;;8.63;5.80;;;9.50;99.90;;;;;;5030705;28;20475;-75
2022/05/31 05:10:44;;;;;;;8.40;5.10;;;9.60;99.90;;;;;;5011973;28;20049;-75
2022/05/31 05:13:09;;;;;;;8.35;5.35;;;9.60;99.90;;;;;;5029238;28;20052;-75
2022/05/31 05:15:39;;;;;;;7.47;5.53;;;9.60;99.90;;;;;;5031237;28;20038;-75
2022/05/31 05:18:05;;;;;;;9.52;5.40;;;9.60;99.90;;;;;;5030542;28;20048;-75
2022/05/31 05:20:33;;;;;;;7.63;5.20;;;9.60;99.90;;;;;;5031396;28;20061;-75
2022/05/31 05:22:58;;;;;;;7.75;5.65;;;9.70;99.90;;;;;;5044927;28;20074;-76
2022/05/31 05:25:24;;;;;;;8.93;5.53;;;9.70;99.90;;;;;;5034593;28;20037;-75
2022/05/31 05:27:49;;;;;;;9.05;5.43;;;9.70;99.90;;;;;;5035241;28;20485;-75
2022/05/31 05:32:59;;;;;;;7.72;5.28;;;9.80;99.90;;;;;;5035041;28;20505;-76
2022/05/31 05:35:24;;;;;;;8.02;5.68;;;9.80;99.90;;;;;;5016076;28;20037;-75
2022/05/31 05:37:50;;;;;;;8.88;5.88;;;9.80;99.90;;;;;;5034772;28;20047;-75
2022/05/31 05:40:15;;;;;;;8.80;6.10;;;9.90;99.90;;;;;;5034293;28;20054;-75
2022/05/31 05:42:42;;;;;;;8.30;5.65;;;9.90;99.90;;;;;;5022545;28;20038;-75
2022/05/31 05:45:10;;;;;;;8.40;5.25;;;9.90;99.90;;;;;;5026517;28;20037;-75
2022/05/31 05:47:35;;;;;;;9.00;5.88;;;9.90;99.90;;;;;;5018424;28;20156;-75
2022/05/31 05:50:02;;;;;;;7.70;5.00;;;10.00;99.90;;;;;;5033589;28;20037;-75
2022/05/31 05:52:29;;;;;;;8.80;5.68;;;10.00;99.90;;;;;;5018031;28;20503;-75
2022/05/31 05:54:54;;;;;;;7.47;5.13;;;10.00;99.90;;;;;;5033685;28;20045;-75
2022/05/31 05:57:20;;;;;;;10.13;6.22;;;10.10;99.90;;;;;;5033563;28;20041;-75
2022/05/31 05:59:45;;;;;;;11.07;6.32;;;10.10;99.90;;;;;;5016358;28;20505;-75
2022/05/31 06:02:18;;;;;;;9.80;5.82;;;10.10;99.90;;;;;;5032640;28;20417;-75
2022/05/31 06:04:51;;;;;;;9.55;5.95;;;10.10;99.90;;;;;;5049184;28;20044;-75
2022/05/31 06:07:36;;;;;;;;;;;10.20;99.90;;;;;;5018302;28;20038;-75
2022/05/31 06:10:08;;;;;;;7.65;5.47;;;10.20;99.90;;;;;;5015314;28;19960;-75
2022/05/31 06:12:38;;;;;;;8.35;5.63;;;10.20;99.90;;;;;;5034160;28;20516;-75
2022/05/31 06:15:13;;;;;;;10.10;6.13;;;10.30;99.90;;;;;;5034149;28;20099;-75
2022/05/31 06:17:43;;;;;;;10.13;5.82;;;10.30;99.90;;;;;;5033268;28;20557;-74
2022/05/31 06:20:10;;;;;;;9.07;6.10;;;10.40;99.90;;;;;;5033837;28;20041;-75
2022/05/31 06:22:37;;;;;;;9.13;5.80;;;10.50;99.90;;;;;;5015559;28;20147;-75
2022/05/31 06:25:03;;;;;;;11.30;6.30;;;10.50;99.90;;;;;;5050456;28;20037;-74
2022/05/31 06:27:29;;;;;;;9.00;5.50;;;10.50;99.90;;;;;;5049481;28;20038;-75
2022/05/31 06:29:54;;;;;;;10.23;6.35;;;10.60;99.90;;;;;;5034400;28;20036;-75
2022/05/31 06:32:20;;;;;;;8.57;5.90;;;10.60;99.90;;;;;;5032052;28;20045;-75
2022/05/31 06:34:46;;;;;;;8.93;5.28;;;10.60;99.90;;;;;;5032676;28;20117;-74
2022/05/31 06:37:14;;;;;;;8.90;6.50;;;10.70;99.90;;;;;;5033588;28;20044;-75
2022/05/31 06:39:41;;;;;;;8.68;5.97;;;10.70;99.90;;;;;;5015948;28;20057;-74
2022/05/31 06:42:09;;;;;;;9.25;5.75;;;10.80;99.90;;;;;;5032368;28;20462;-74
2022/05/31 06:44:36;;;;;;;8.50;5.53;;;10.80;99.90;;;;;;5017044;28;20055;-75
2022/05/31 06:47:02;;;;;;;8.90;5.70;;;10.80;99.90;;;;;;5031028;28;20038;-74
2022/05/31 06:49:29;;;;;;;10.85;6.45;;;10.90;99.90;;;;;;5036029;28;20029;-75
2022/05/31 06:57:23;;;;;;;8.90;5.55;;;11.20;99.90;;;;;;5012914;28;20054;-75
2022/05/31 06:59:49;;;;;;;9.30;5.28;;;11.20;99.90;;;;;;5016399;28;20045;-75
2022/05/31 07:02:14;;;;;;;9.45;5.07;;;11.20;99.90;;;;;;5013967;28;20112;-75
2022/05/31 07:04:40;;;;;;;8.40;4.85;;;11.40;99.90;;;;;;5032347;28;20037;-75
2022/05/31 07:07:05;;;;;;;9.63;5.68;;;11.50;99.90;;;;;;5030638;28;20030;-75
2022/05/31 07:09:32;;;;;;;8.88;4.93;;;11.50;99.90;;;;;;5015522;28;20034;-75
2022/05/31 07:11:58;;;;;;;9.60;5.43;;;11.50;99.90;;;;;;5026092;28;20048;-75
2022/05/31 07:14:24;;;;;;;8.43;5.20;;;11.60;99.90;;;;;;5032121;28;20033;-74
2022/05/31 07:16:50;;;;;;;10.43;5.63;;;11.70;99.90;;;;;;5032852;28;20045;-74
2022/05/31 07:19:16;;;;;;;8.88;5.47;;;11.80;99.90;;;;;;5032069;28;20068;-73
2022/05/31 07:21:42;;;;;;;10.23;4.93;;;11.90;99.90;;;;;;5049303;28;20029;-73
2022/05/31 07:24:08;;;;;;;9.23;4.90;;;12.00;99.90;;;;;;5015613;28;20033;-73
2022/05/31 07:26:33;;;;;;;10.15;5.03;;;12.10;99.90;;;;;;5032070;28;20120;-74
2022/05/31 07:28:59;;;;;;;11.45;5.15;;;12.30;99.90;;;;;;5018029;28;20075;-74
2022/05/31 07:31:26;;;;;;;8.38;5.22;;;12.40;99.90;;;;;;4996723;28;20049;-74
2022/05/31 07:33:52;;;;;;;7.57;4.63;;;12.40;99.90;;;;;;5019748;28;20037;-74
2022/05/31 07:36:19;;;;;;;9.18;5.15;;;12.70;99.90;;;;;;5031966;28;20048;-74
2022/05/31 07:38:45;;;;;;;7.28;4.63;;;12.80;99.90;;;;;;5032567;28;20486;-74
2022/05/31 07:41:11;;;;;;;9.73;5.00;;;12.80;99.90;;;;;;5032243;28;20056;-74
2022/05/31 07:43:37;;;;;;;9.13;4.63;;;13.00;99.90;;;;;;5031905;28;20037;-74
2022/05/31 07:46:05;;;;;;;8.02;4.30;;;13.10;99.90;;;;;;5029471;28;20044;-74
2022/05/31 07:48:33;;;;;;;9.73;4.63;;;13.30;99.90;;;;;;5033884;28;20557;-74
2022/05/31 07:50:59;;;;;;;6.55;4.10;;;13.10;99.90;;;;;;5030816;28;20052;-74
2022/05/31 07:53:24;;;;;;;7.65;4.20;;;13.20;99.90;;;;;;5030437;28;20041;-75
2022/05/31 07:55:55;;;;;;;8.50;4.63;;;13.20;99.90;;;;;;5032391;28;20045;-74
2022/05/31 07:58:32;;;;;;;8.10;4.35;;;13.30;99.90;;;;;;5015475;28;20036;-74
2022/05/31 08:01:00;;;;;;;8.82;4.75;;;13.30;99.90;;;;;;5015748;28;20124;-74
2022/05/31 08:03:26;;;;;;;11.73;4.93;;;13.30;99.90;;;;;;5015999;28;20441;-74
2022/05/31 08:05:52;;;;;;;12.00;4.53;;;13.40;99.90;;;;;;5015658;28;20037;-74
2022/05/31 08:08:17;;;;;;;18.52;7.97;;;13.40;99.90;;;;;;5020949;28;20389;-74
2022/05/31 08:10:43;;;;;;;9.10;4.70;;;13.60;99.90;;;;;;5026712;28;20045;-74
2022/05/31 08:13:09;;;;;;;7.63;4.53;;;13.60;99.90;;;;;;5045394;28;20129;-74
2022/05/31 08:15:35;;;;;;;8.27;4.28;;;13.80;99.90;;;;;;5027981;28;20065;-74
2022/05/31 08:18:01;;;;;;;8.70;3.88;;;14.00;99.90;;;;;;5028684;28;20490;-74
2022/05/31 08:20:27;;;;;;;6.70;2.95;;;14.20;99.90;;;;;;5021159;28;20046;-74
2022/05/31 08:22:52;;;;;;;7.15;3.47;;;14.50;99.90;;;;;;5031984;28;20513;-74
2022/05/31 08:25:18;;;;;;;7.57;3.28;;;14.60;99.90;;;;;;5031905;28;20038;-74
2022/05/31 08:27:43;;;;;;;6.68;3.45;;;14.70;99.90;;;;;;5010514;28;20554;-74
2022/05/31 08:30:09;;;;;;;8.90;3.45;;;14.80;99.90;;;;;;5042765;28;20082;-74
2022/05/31 08:32:36;;;;;;;10.95;3.05;;;14.80;99.90;;;;;;5031270;28;20429;-74
2022/05/31 08:35:03;;;;;;;7.63;3.42;;;14.80;99.90;;;;;;5015051;28;20497;-73
2022/05/31 08:37:30;;;;;;;6.22;3.33;;;15.00;99.90;;;;;;5031430;28;20090;-74
2022/05/31 08:39:56;;;;;;;5.97;3.20;;;15.10;99.90;;;;;;5014750;28;20100;-74
2022/05/31 08:42:33;;;;;;;6.18;3.05;;;15.20;99.90;;;;;;5031830;28;20049;-74
2022/05/31 08:45:03;;;;;;;5.70;2.65;;;15.30;99.90;;;;;;5013852;28;20049;-73
2022/05/31 08:47:53;;;;;;;6.05;2.30;;;15.40;99.90;;;;;;5047599;28;20046;-73
2022/05/31 08:53:14;;;;;;;7.45;3.72;;;15.80;99.90;;;;;;5031580;28;20049;-73
2022/05/31 08:58:45;;;;;;;6.25;2.70;;;15.70;99.90;;;;;;5033716;28;20553;-73
2022/05/31 09:01:22;;;;;;;7.75;3.17;;;15.70;99.90;;;;;;5032399;28;20038;-74
2022/05/31 09:03:56;;;;;;;7.13;2.40;;;15.80;99.90;;;;;;5041211;28;20401;-73
2022/05/31 09:06:28;;;;;;;8.20;2.60;;;15.90;99.90;;;;;;5027600;28;20094;-73
2022/05/31 09:09:23;;;;;;;6.70;2.78;;;16.00;99.90;;;;;;5035492;28;20406;-73
2022/05/31 09:12:21;;;;;;;5.05;2.35;;;15.80;99.90;;;;;;5030977;28;20050;-73
2022/05/31 09:15:01;;;;;;;5.50;2.60;;;15.70;99.90;;;;;;5015660;28;20085;-73
2022/05/31 09:17:32;;;;;;;6.28;2.78;;;15.60;99.90;;;;;;5023555;28;20041;-73
2022/05/31 09:20:15;;;;;;;5.75;2.40;;;15.50;99.90;;;;;;5015475;28;20128;-73
2022/05/31 09:22:44;;;;;;;5.63;2.50;;;15.30;99.90;;;;;;5015391;28;20048;-73
2022/05/31 09:25:10;;;;;;;8.43;3.58;;;15.40;99.90;;;;;;5032829;28;20497;-73
2022/05/31 09:27:48;;;;;;;5.32;2.65;;;15.20;99.90;;;;;;5032961;28;20041;-73
2022/05/31 09:30:39;;;;;;;8.10;2.92;;;15.20;99.90;;;;;;5033729;28;20512;-74
2022/05/31 09:33:25;;;;;;;7.18;3.03;;;15.20;99.90;;;;;;5015164;28;20071;-74
2022/05/31 09:36:09;;;;;;;6.75;2.70;;;15.50;99.90;;;;;;5030493;28;20043;-74
2022/05/31 09:38:52;;;;;;;6.45;3.33;;;15.60;99.90;;;;;;5016310;28;20057;-79
2022/05/31 09:41:40;;;;;;;6.97;3.65;;;15.50;99.90;;;;;;5033395;28;20045;-77
2022/05/31 09:44:23;;;;;;;9.45;3.25;;;15.40;99.90;;;;;;5032351;28;20033;-77
2022/05/31 09:47:14;;;;;;;;;;;15.20;98.50;;;;;;5033201;28;20482;-77
2022/05/31 09:49:42;;;;;;;5.25;2.47;;;15.20;99.90;;;;;;5031587;28;19924;-77
2022/05/31 09:52:12;;;;;;;6.93;2.33;;;15.10;99.90;;;;;;5010931;28;20040;-77
2022/05/31 09:58:18;;;;;;;5.43;2.28;;;15.00;99.90;;;;;;5048888;28;20124;-77
2022/05/31 10:01:21;;;;;;;14.40;2.80;;;15.00;99.90;;;;;;5014488;28;20038;-74
2022/05/31 10:03:52;;;;;;;6.18;2.47;;;15.00;99.90;;;;;;5031902;28;20041;-74
2022/05/31 10:06:19;;;;;;;6.67;2.60;;;15.00;99.90;;;;;;5033310;28;20116;-74
2022/05/31 10:08:52;;;;;;;6.18;2.45;;;15.00;99.90;;;;;;5015266;28;20040;-74
2022/05/31 10:11:37;;;;;;;5.25;2.20;;;15.10;99.90;;;;;;5031661;28;20037;-75
2022/05/31 10:14:20;;;;;;;5.30;2.95;;;15.10;99.90;;;;;;5033170;28;20042;-74
2022/05/31 10:16:49;;;;;;;6.40;2.50;;;15.00;99.90;;;;;;5013462;28;20037;-74
2022/05/31 10:19:27;;;;;;;9.77;3.17;;;15.10;99.90;;;;;;5014584;28;20041;-74
2022/05/31 10:21:53;;;;;;;7.70;2.97;;;15.00;99.90;;;;;;5012813;28;20033;-74
2022/05/31 10:24:21;;;;;;;6.55;3.42;;;15.10;99.90;;;;;;5016196;28;20103;-74
2022/05/31 10:27:09;;;;;;;6.20;3.30;;;15.20;99.90;;;;;;5031283;28;20044;-74
2022/05/31 10:29:59;;;;;;;7.72;2.97;;;15.20;99.90;;;;;;5030841;28;20044;-74
2022/05/31 10:32:28;;;;;;;6.15;3.00;;;15.40;99.90;;;;;;5030686;28;20041;-74
2022/05/31 10:35:17;;;;;;;7.07;3.10;;;15.50;99.90;;;;;;5030329;28;20033;-74
2022/05/31 10:37:57;;;;;;;8.10;3.13;;;15.60;99.90;;;;;;5013368;28;20099;-74
2022/05/31 10:40:56;;;;;;;8.77;3.88;;;15.80;99.90;;;;;;5032109;28;20080;-73
2022/05/31 10:43:45;;;;;;;6.63;3.15;;;15.90;98.00;;;;;;5031810;28;20080;-74
2022/05/31 10:46:25;;;;;;;9.00;2.97;;;16.10;99.90;;;;;;5011709;28;20055;-73
2022/05/31 10:48:55;;;;;;;6.22;3.03;;;16.30;98.50;;;;;;5032064;28;20103;-74
2022/05/31 10:51:33;;;;;;;6.80;2.78;;;16.10;98.40;;;;;;5032181;28;20042;-73
2022/05/31 10:54:17;;;;;;;7.57;2.80;;;16.00;96.90;;;;;;5031496;28;20139;-74
2022/05/31 10:56:50;;;;;;;6.97;2.90;;;16.10;98.70;;;;;;5013056;28;20167;-74
2022/05/31 10:59:24;;;;;;;6.47;3.08;;;16.20;96.90;;;;;;5044723;28;20406;-74
2022/05/31 11:02:34;;;;;;;5.80;3.10;;;16.20;99.30;;;;;;5028596;28;20049;-74
2022/05/31 11:05:10;;;;;;;9.52;2.90;;;16.20;98.20;;;;;;5009944;28;20469;-73
2022/05/31 11:07:42;;;;;;;8.23;2.97;;;16.40;96.60;;;;;;5042376;28;20077;-73
2022/05/31 11:13:34;;;;;;;5.40;2.90;;;16.40;96.10;;;;;;5017310;28;19917;-74
2022/05/31 11:16:28;;;;;;;5.90;2.55;;;16.40;86.50;;;;;;5030430;28;20053;-74
2022/05/31 11:19:14;;;;;;;5.55;2.50;;;16.50;97.20;;;;;;5026638;28;20049;-74
2022/05/31 11:21:58;;;;;;;7.10;3.25;;;16.50;93.30;;;;;;5030975;28;20123;-73
2022/05/31 11:24:39;;;;;;;6.80;3.33;;;16.50;96.90;;;;;;5030111;28;20370;-73
2022/05/31 11:27:26;;;;;;;5.47;2.70;;;16.60;97.60;;;;;;5029684;28;20044;-73
2022/05/31 11:30:11;;;;;;;8.77;3.35;;;16.60;96.10;;;;;;5027966;28;20068;-73
2022/05/31 11:32:54;;;;;;;6.97;3.17;;;16.70;95.40;;;;;;5046003;28;20489;-73
2022/05/31 11:35:42;;;;;;;7.50;2.63;;;16.70;86.10;;;;;;5029280;28;20043;-73
2022/05/31 11:38:15;;;;;;;5.30;2.38;;;16.70;96.40;;;;;;5017998;28;20033;-73
2022/05/31 11:40:57;;;;;;;6.88;2.70;;;16.70;95.40;;;;;;5029275;28;20076;-73
2022/05/31 11:43:48;;;;;;;7.30;3.35;;;16.90;92.80;;;;;;5010740;28;20045;-73
2022/05/31 11:46:13;;;;;;;6.13;2.55;;;16.80;94.70;;;;;;5065433;28;20512;-73
2022/05/31 11:48:56;;;;;;;7.43;2.80;;;16.60;79.40;;;;;;5030177;28;20033;-73
2022/05/31 11:51:32;;;;;;;5.70;2.38;;;16.60;93.20;;;;;;5010359;28;20065;-73
2022/05/31 11:54:17;;;;;;;5.72;2.67;;;16.70;95.70;;;;;;5014400;28;20033;-73
2022/05/31 11:57:04;;;;;;;4.57;2.22;;;16.70;94.20;;;;;;5047883;28;20440;-73
2022/05/31 11:59:36;;;;;;;6.38;2.90;;;16.90;95.70;;;;;;5017225;28;20099;-73
2022/05/31 12:02:14;;;;;;;7.57;2.85;;;17.00;79.10;;;;;;5014686;28;20034;-73
2022/05/31 12:04:49;;;;;;;6.75;2.72;;;17.20;85.10;;;;;;5014043;28;20041;-73
2022/05/31 12:07:21;;;;;;;6.65;2.53;;;17.30;89.10;;;;;;5047823;28;20029;-73
2022/05/31 12:09:58;;;;;;;;;;;17.50;91.10;;;;;;5032600;28;20038;-73
2022/05/31 12:12:30;;;;;;;7.72;2.85;;;17.50;89.30;;;;;;5014452;28;19917;-73
2022/05/31 12:15:22;;;;;;;4.85;2.50;;;17.50;87.20;;;;;;5030415;28;20041;-73
2022/05/31 12:18:19;;;;;;;8.50;2.88;;;17.40;85.70;;;;;;5014541;28;20045;-73
2022/05/31 12:21:29;;;;;;;6.90;2.80;;;17.20;85.50;;;;;;5032905;28;20107;-73
2022/05/31 12:24:10;;;;;;;6.68;3.33;;;17.10;91.80;;;;;;5030992;28;20363;-73
2022/05/31 12:26:44;;;;;;;6.75;3.10;;;17.10;82.10;;;;;;5030393;28;20103;-73
2022/05/31 12:29:13;;;;;;;8.63;2.95;;;16.90;86.80;;;;;;5012599;28;20382;-73
2022/05/31 12:31:40;;;;;;;8.35;3.80;;;16.80;90.60;;;;;;5028295;28;20045;-73
2022/05/31 12:34:21;;;;;;;7.32;3.13;;;16.80;93.10;;;;;;5016960;28;20549;-73
2022/05/31 12:37:04;;;;;;;7.70;3.40;;;16.70;92.60;;;;;;5015426;28;20092;-73
2022/05/31 12:39:33;;;;;;;8.43;3.33;;;16.70;92.30;;;;;;5030710;28;20057;-73
2022/05/31 12:42:14;;;;;;;7.10;3.20;;;16.80;87.60;;;;;;5020780;28;20046;-74
2022/05/31 12:44:48;;;;;;;7.47;3.28;;;16.80;84.60;;;;;;5033389;28;20033;-74
2022/05/31 12:47:28;;;;;;;8.05;3.08;;;16.70;89.50;;;;;;5033792;28;20033;-74
2022/05/31 12:50:02;;;;;;;6.75;3.22;;;16.70;81.00;;;;;;5017306;28;20048;-74
2022/05/31 12:55:36;;;;;;;8.60;3.15;;;16.70;93.60;;;;;;5034171;28;20041;-74
2022/05/31 13:00:53;;;;;;;9.52;3.15;;;16.60;86.50;;;;;;5027814;28;20046;-74
2022/05/31 13:03:34;;;;;;;6.15;3.00;;;16.60;92.30;;;;;;5033434;28;20033;-74
2022/05/31 13:06:07;;;;;;;7.45;3.38;;;16.50;95.20;;;;;;5032669;28;20033;-73
2022/05/31 13:08:51;;;;;;;9.32;4.22;;;16.50;95.80;;;;;;5032892;28;20096;-74
2022/05/31 13:20:39;;;;;;;12.02;7.03;;;16.20;94.70;;;;;;5041691;28;20045;-74
2022/05/31 13:23:19;;;;;;;7.88;4.18;;;16.10;95.50;;;;;;5033361;28;20048;-74
2022/05/31 13:26:01;;;;;;;8.52;3.78;;;16.00;96.00;;;;;;5032807;28;20048;-73
2022/05/31 13:28:34;;;;;;;8.00;4.07;;;15.90;97.20;;;;;;5031869;28;20045;-77
2022/05/31 13:31:10;;;;;;;8.38;4.38;;;15.80;96.50;;;;;;5015586;28;20033;-75
2022/05/31 13:33:37;;;;;;;9.07;4.32;;;15.80;95.90;;;;;;5049954;28;20045;-74
2022/05/31 13:36:39;;;;;;;8.50;4.07;;;15.80;95.60;;;;;;5016431;28;20482;-74
2022/05/31 13:39:09;;;;;;;7.68;4.10;;;15.70;95.70;;;;;;5031591;28;20441;-73
2022/05/31 13:41:47;;;;;;;9.45;4.70;;;15.60;96.50;;;;;;5016296;28;20073;-73
2022/05/31 13:44:13;;;;;;;7.22;4.00;;;15.50;96.80;;;;;;5015761;28;20078;-73
2022/05/31 13:46:42;;;;;;;8.13;4.00;;;15.60;97.10;;;;;;5033392;28;20048;-73
2022/05/31 13:49:17;;;;;;;8.38;4.20;;;15.50;97.70;;;;;;5033817;28;20397;-73